createdAt,value
2022-11-09T00:02:11.646Z,20.84
2022-11-09T00:04:42.772Z,21.14
2022-11-09T00:07:14.121Z,21.71
2022-11-09T00:09:45.558Z,22.17
2022-11-09T00:12:16.490Z,22.45
2022-11-09T00:14:47.232Z,22.43
2022-11-09T00:17:18.466Z,22.84
2022-11-09T00:19:49.518Z,22.95
2022-11-09T00:22:20.396Z,23.14
2022-11-09T00:24:51.340Z,23.53
2022-11-09T00:27:22.503Z,23.90
2022-11-09T00:29:53.564Z,24.86
2022-11-09T00:32:27.753Z,25.46
2022-11-09T00:34:59.059Z,25.53
2022-11-09T00:37:33.231Z,24.77
2022-11-09T00:40:04.525Z,24.91
2022-11-09T00:42:35.380Z,25.66
2022-11-09T00:45:06.595Z,26.26
2022-11-09T00:47:37.243Z,26.06
2022-11-09T00:50:09.219Z,24.89
2022-11-09T00:52:40.435Z,24.40
2022-11-09T00:55:11.629Z,24.90
2022-11-09T00:57:42.598Z,24.73
2022-11-09T01:00:14.004Z,25.06
2022-11-09T01:02:44.909Z,24.05
2022-11-09T01:05:16.021Z,23.95
2022-11-09T01:07:47.072Z,23.81
2022-11-09T01:10:17.835Z,24.00
2022-11-09T01:12:50.144Z,23.70
2022-11-09T01:15:20.954Z,23.72
2022-11-09T01:17:52.125Z,24.25
2022-11-09T01:20:23.442Z,23.53
2022-11-09T01:22:54.204Z,23.92
2022-11-09T01:25:25.499Z,23.80
2022-11-09T01:27:58.520Z,23.37
2022-11-09T01:30:29.745Z,23.63
2022-11-09T01:33:00.492Z,25.01
2022-11-09T01:35:31.461Z,25.57
2022-11-09T01:38:03.188Z,26.00
2022-11-09T01:40:35.560Z,25.95
2022-11-09T01:43:32.543Z,26.37
2022-11-09T01:46:21.314Z,25.70
2022-11-09T01:48:58.513Z,26.20
2022-11-09T01:51:37.005Z,26.09
2022-11-09T01:54:18.215Z,26.66
2022-11-09T01:56:54.555Z,27.01
2022-11-09T01:59:29.545Z,26.21
2022-11-09T02:02:00.731Z,26.46
2022-11-09T02:04:53.124Z,27.12
2022-11-09T02:07:25.140Z,26.36
2022-11-09T02:10:14.915Z,26.44
2022-11-09T02:12:47.534Z,26.43
2022-11-09T02:15:18.346Z,26.74
2022-11-09T02:17:52.443Z,26.97
2022-11-09T02:20:24.415Z,26.78
2022-11-09T02:22:55.551Z,26.49
2022-11-09T02:25:26.325Z,26.99
2022-11-09T02:27:57.337Z,26.86
2022-11-09T02:30:28.528Z,26.91
2022-11-09T02:33:00.013Z,27.52
2022-11-09T02:35:30.910Z,27.40
2022-11-09T02:38:02.078Z,27.97
2022-11-09T02:40:38.059Z,27.14
2022-11-09T02:43:09.985Z,27.54
2022-11-09T02:45:40.952Z,27.61
2022-11-09T02:48:11.768Z,27.61
2022-11-09T02:50:42.547Z,26.93
2022-11-09T02:53:14.137Z,26.32
2022-11-09T02:55:48.010Z,25.76
2022-11-09T02:58:19.855Z,25.59
2022-11-09T03:00:51.204Z,27.07
2022-11-09T03:03:21.832Z,27.65
2022-11-09T03:05:54.242Z,27.77
2022-11-09T03:08:25.413Z,28.46
2022-11-09T03:10:56.372Z,27.01
2022-11-09T03:13:27.810Z,26.00
2022-11-09T03:15:59.331Z,26.44
2022-11-09T03:18:30.912Z,26.86
2022-11-09T03:21:07.119Z,25.67
2022-11-09T03:23:38.246Z,25.05
2022-11-09T03:26:10.659Z,25.22
2022-11-09T03:28:42.699Z,25.21
2022-11-09T03:31:14.023Z,26.19
2022-11-09T03:33:45.677Z,26.54
2022-11-09T03:36:19.065Z,26.75
2022-11-09T03:38:50.428Z,26.25
2022-11-09T03:41:22.663Z,25.47
2022-11-09T03:43:53.870Z,25.70
2022-11-09T03:46:25.250Z,25.90
2022-11-09T03:48:56.049Z,26.94
2022-11-09T03:51:26.949Z,27.03
2022-11-09T03:53:58.363Z,26.29
2022-11-09T03:56:29.893Z,26.05
2022-11-09T03:59:00.843Z,26.28
2022-11-09T04:01:32.152Z,26.33
2022-11-09T04:04:03.060Z,26.13
2022-11-09T04:06:35.246Z,26.19
2022-11-09T04:09:07.481Z,25.67
2022-11-09T04:11:39.058Z,25.33
2022-11-09T04:14:10.007Z,25.33
2022-11-09T04:16:41.295Z,25.36
2022-11-09T04:19:12.034Z,25.39
2022-11-09T04:21:42.946Z,24.92
2022-11-09T04:24:13.736Z,24.53
2022-11-09T04:26:44.493Z,24.59
2022-11-09T04:29:15.533Z,24.74
2022-11-09T04:31:46.589Z,24.31
2022-11-09T04:36:47.409Z,24.09
2022-11-09T04:39:18.334Z,23.95
2022-11-09T04:41:49.162Z,23.92
2022-11-09T04:44:20.199Z,24.11
2022-11-09T04:46:51.013Z,23.96
2022-11-09T04:49:22.245Z,23.67
2022-11-09T04:51:53.241Z,23.69
2022-11-09T04:54:24.631Z,23.40
2022-11-09T04:56:55.374Z,23.45
2022-11-09T04:59:26.195Z,23.43
2022-11-09T05:01:57.201Z,23.36
2022-11-09T05:04:28.277Z,23.36
2022-11-09T05:06:59.614Z,23.36
2022-11-09T05:09:30.505Z,23.21
2022-11-09T05:12:01.643Z,23.21
2022-11-09T05:14:32.616Z,23.23
2022-11-09T05:17:03.569Z,22.94
2022-11-09T05:19:34.797Z,22.72
2022-11-09T05:22:23.549Z,22.63
2022-11-09T05:24:55.187Z,22.54
2022-11-09T05:27:26.417Z,22.34
2022-11-09T05:29:57.200Z,22.05
2022-11-09T05:32:28.424Z,21.77
2022-11-09T05:34:59.601Z,21.94
2022-11-09T05:37:30.529Z,21.79
2022-11-09T05:40:01.321Z,21.72
2022-11-09T05:42:33.029Z,21.46
2022-11-09T05:45:27.933Z,21.55
2022-11-09T05:47:54.664Z,21.49
2022-11-09T05:50:25.666Z,21.42
2022-11-09T05:53:14.101Z,21.32
2022-11-09T05:55:45.096Z,21.14
2022-11-09T05:58:15.962Z,21.04
2022-11-09T06:00:46.714Z,20.82
2022-11-09T06:03:18.260Z,20.76
2022-11-09T06:05:49.346Z,20.40
2022-11-09T06:08:20.602Z,20.29
2022-11-09T06:10:51.851Z,20.58
2022-11-09T06:13:23.111Z,20.37
2022-11-09T06:15:58.626Z,20.14
2022-11-09T06:18:31.693Z,20.37
2022-11-09T06:21:04.318Z,20.12
2022-11-09T06:23:35.954Z,20.15
2022-11-09T06:26:11.383Z,20.18
2022-11-09T06:28:43.841Z,20.07
2022-11-09T06:31:17.821Z,20.06
2022-11-09T06:33:48.802Z,19.94
2022-11-09T06:36:19.936Z,19.80
2022-11-09T06:38:56.599Z,19.79
2022-11-09T06:41:27.558Z,19.85
2022-11-09T06:43:58.511Z,20.05
2022-11-09T06:46:29.472Z,19.85
2022-11-09T06:49:00.792Z,20.03
2022-11-09T06:51:32.408Z,20.04
2022-11-09T06:54:03.990Z,19.85
2022-11-09T06:56:34.768Z,19.89
2022-11-09T06:59:05.629Z,19.85
2022-11-09T07:01:36.722Z,19.95
2022-11-09T07:04:07.624Z,20.16
2022-11-09T07:06:42.597Z,20.01
2022-11-09T07:09:13.918Z,20.01
2022-11-09T07:11:45.015Z,20.26
2022-11-09T07:14:15.945Z,19.88
2022-11-09T07:16:46.995Z,19.80
2022-11-09T07:19:17.966Z,19.72
2022-11-09T07:21:48.785Z,19.78
2022-11-09T07:24:19.778Z,19.75
2022-11-09T07:26:51.666Z,19.67
2022-11-09T07:29:22.629Z,19.76
2022-11-09T07:31:53.394Z,19.24
2022-11-09T07:34:24.569Z,19.48
2022-11-09T07:36:56.290Z,19.24
2022-11-09T07:39:26.784Z,18.86
2022-11-09T07:41:57.861Z,18.84
2022-11-09T07:44:30.627Z,18.78
2022-11-09T07:47:01.599Z,18.76
2022-11-09T07:49:32.566Z,19.21
2022-11-09T07:52:03.365Z,19.08
2022-11-09T07:54:34.835Z,19.27
2022-11-09T07:57:05.910Z,19.15
2022-11-09T07:59:36.967Z,19.12
2022-11-09T08:02:07.806Z,18.92
2022-11-09T08:04:38.603Z,19.21
2022-11-09T08:07:09.600Z,19.08
2022-11-09T08:09:40.421Z,19.16
2022-11-09T08:12:11.399Z,19.30
2022-11-09T08:14:42.407Z,19.07
2022-11-09T08:17:13.186Z,19.14
2022-11-09T08:19:44.452Z,19.06
2022-11-09T08:22:15.207Z,19.05
2022-11-09T08:24:46.495Z,18.94
2022-11-09T08:27:17.806Z,18.98
2022-11-09T08:29:48.751Z,18.95
2022-11-09T08:32:19.678Z,18.84
2022-11-09T08:34:50.742Z,18.53
2022-11-09T08:37:21.682Z,18.42
2022-11-09T08:39:52.682Z,18.43
2022-11-09T08:42:23.803Z,18.58
2022-11-09T08:44:54.711Z,18.53
2022-11-09T08:47:25.913Z,18.69
2022-11-09T08:49:56.909Z,18.58
2022-11-09T08:52:28.209Z,18.40
2022-11-09T08:54:59.279Z,18.43
2022-11-09T08:57:30.266Z,18.06
2022-11-09T09:00:01.038Z,18.05
2022-11-09T09:02:34.032Z,18.00
2022-11-09T09:05:04.931Z,17.93
2022-11-09T09:07:36.193Z,17.94
2022-11-09T09:10:07.467Z,17.98
2022-11-09T09:12:38.760Z,17.92
2022-11-09T09:15:13.154Z,18.00
2022-11-09T09:17:43.944Z,17.98
2022-11-09T09:20:15.481Z,17.64
2022-11-09T09:22:47.011Z,17.63
2022-11-09T09:25:18.297Z,17.78
2022-11-09T09:27:49.434Z,17.32
2022-11-09T09:30:20.858Z,17.57
2022-11-09T09:32:52.101Z,17.50
2022-11-09T09:35:23.070Z,17.38
2022-11-09T09:37:54.462Z,17.57
2022-11-09T09:41:01.326Z,17.47
2022-11-09T09:43:43.546Z,17.36
2022-11-09T09:46:34.376Z,17.30
2022-11-09T09:49:17.467Z,17.12
2022-11-09T09:52:28.776Z,17.17
2022-11-09T09:55:04.052Z,17.21
2022-11-09T09:57:40.487Z,16.87
2022-11-09T10:00:22.123Z,17.00
2022-11-09T10:02:53.783Z,16.99
2022-11-09T10:05:31.211Z,16.84
2022-11-09T10:08:12.637Z,16.80
2022-11-09T10:10:47.759Z,16.63
2022-11-09T10:13:24.795Z,16.54
2022-11-09T10:16:03.169Z,16.51
2022-11-09T10:18:36.697Z,16.61
2022-11-09T10:21:41.607Z,16.72
2022-11-09T10:25:12.893Z,16.62
2022-11-09T10:27:45.407Z,16.35
2022-11-09T10:30:21.646Z,16.62
2022-11-09T10:33:01.570Z,16.60
2022-11-09T10:35:55.260Z,16.53
2022-11-09T10:38:31.792Z,16.59
2022-11-09T10:41:24.170Z,16.58
2022-11-09T10:44:18.852Z,16.51
2022-11-09T10:47:10.950Z,16.66
2022-11-09T10:50:31.103Z,16.63
2022-11-09T10:53:25.694Z,16.50
2022-11-09T10:56:22.363Z,16.52
2022-11-09T10:59:40.128Z,16.38
2022-11-09T11:02:30.431Z,16.44
2022-11-09T11:05:19.973Z,16.16
2022-11-09T11:08:37.190Z,16.04
2022-11-09T11:11:34.203Z,16.19
2022-11-09T11:14:37.824Z,16.10
2022-11-09T11:17:37.005Z,16.17
2022-11-09T11:20:39.824Z,16.27
2022-11-09T11:23:29.201Z,16.34
2022-11-09T11:26:24.149Z,16.29
2022-11-09T11:29:21.716Z,16.29
2022-11-09T11:32:17.404Z,16.46
2022-11-09T11:35:14.330Z,16.22
2022-11-09T11:38:12.632Z,16.19
2022-11-09T11:41:32.437Z,16.42
2022-11-09T11:45:12.739Z,16.36
2022-11-09T11:48:25.507Z,16.36
2022-11-09T11:51:48.436Z,16.34
2022-11-09T11:54:51.000Z,16.42
2022-11-09T11:58:03.159Z,16.30
2022-11-09T12:01:07.672Z,16.15
2022-11-09T12:04:20.596Z,16.21
2022-11-09T12:07:27.865Z,16.00
2022-11-09T12:10:30.035Z,16.11
2022-11-09T12:13:28.600Z,16.36
2022-11-09T12:16:27.543Z,16.47
2022-11-09T12:19:42.155Z,16.56
2022-11-09T12:22:49.676Z,16.62
2022-11-09T12:25:52.839Z,16.70
2022-11-09T12:28:51.587Z,16.77
2022-11-09T12:32:00.292Z,16.89
2022-11-09T12:35:11.405Z,16.96
2022-11-09T12:38:25.759Z,17.00
2022-11-09T12:41:23.989Z,16.96
2022-11-09T12:44:27.094Z,17.12
2022-11-09T12:47:20.608Z,17.20
2022-11-09T12:50:15.200Z,17.06
2022-11-09T12:53:05.610Z,17.14
2022-11-09T12:56:18.847Z,17.25
2022-11-09T12:59:29.590Z,17.09
2022-11-09T13:02:26.616Z,17.02
2022-11-09T13:05:34.327Z,17.13
2022-11-09T13:08:30.763Z,17.03
2022-11-09T13:11:24.371Z,16.89
2022-11-09T13:14:31.868Z,16.85
2022-11-09T13:17:41.051Z,16.76
2022-11-09T13:20:56.817Z,16.76
2022-11-09T13:24:00.585Z,16.57
2022-11-09T13:26:51.030Z,16.67
2022-11-09T13:29:42.507Z,16.72
2022-11-09T13:32:34.961Z,16.65
2022-11-09T13:35:42.597Z,16.70
2022-11-09T13:38:33.175Z,16.79
2022-11-09T13:41:32.290Z,16.60
2022-11-09T13:44:34.139Z,16.54
2022-11-09T13:47:34.512Z,16.51
2022-11-09T13:50:26.236Z,16.55
2022-11-09T13:53:38.908Z,16.53
2022-11-09T13:56:41.337Z,16.50
2022-11-09T13:59:36.385Z,16.42
2022-11-09T14:02:28.500Z,16.49
2022-11-09T14:05:28.160Z,16.46
2022-11-09T14:08:25.241Z,16.43
2022-11-09T14:11:33.236Z,16.39
2022-11-09T14:14:39.880Z,16.41
2022-11-09T14:17:55.145Z,16.32
2022-11-09T14:20:56.890Z,16.31
2022-11-09T14:23:46.169Z,16.20
2022-11-09T14:26:35.026Z,16.21
2022-11-09T14:29:25.845Z,16.23
2022-11-09T14:32:31.907Z,16.24
2022-11-09T14:35:27.745Z,16.18
2022-11-09T14:38:29.469Z,16.21
2022-11-09T14:41:28.882Z,16.13
2022-11-09T14:44:41.782Z,16.17
2022-11-09T14:47:36.477Z,16.10
2022-11-09T14:50:28.634Z,16.11
2022-11-09T14:53:23.867Z,16.06
2022-11-09T14:56:15.694Z,15.96
2022-11-09T14:59:08.403Z,15.99
2022-11-09T15:02:18.395Z,16.02
2022-11-09T15:05:09.175Z,15.97
2022-11-09T15:07:58.598Z,15.90
2022-11-09T15:10:54.852Z,15.89
2022-11-09T15:13:44.025Z,15.96
2022-11-09T15:16:33.678Z,15.85
2022-11-09T15:19:24.816Z,15.88
2022-11-09T15:22:41.313Z,15.81
2022-11-09T15:25:38.935Z,15.82
2022-11-09T15:28:30.363Z,15.80
2022-11-09T15:31:20.904Z,15.80
2022-11-09T15:34:34.449Z,15.75
2022-11-09T15:37:27.746Z,15.74
2022-11-09T15:40:22.476Z,15.66
2022-11-09T15:43:11.870Z,15.65
2022-11-09T15:46:02.604Z,15.48
2022-11-09T15:48:51.941Z,15.44
2022-11-09T15:51:41.160Z,15.48
2022-11-09T15:54:29.976Z,15.36
2022-11-09T15:57:20.885Z,15.30
2022-11-09T16:00:17.824Z,15.21
2022-11-09T16:03:08.793Z,15.26
2022-11-09T16:05:57.615Z,15.22
2022-11-09T16:08:50.069Z,15.39
2022-11-09T16:11:39.222Z,15.44
2022-11-09T16:14:28.258Z,15.49
2022-11-09T16:17:17.950Z,15.45
2022-11-09T16:20:08.120Z,15.49
2022-11-09T16:22:57.176Z,15.38
2022-11-09T16:25:46.286Z,15.21
2022-11-09T16:28:35.496Z,15.15
2022-11-09T16:31:52.940Z,14.87
2022-11-09T16:34:33.524Z,15.11
2022-11-09T16:37:24.237Z,15.08
2022-11-09T16:40:16.062Z,14.99
2022-11-09T16:43:05.019Z,15.09
2022-11-09T16:45:53.949Z,15.16
2022-11-09T16:48:42.898Z,15.23
2022-11-09T16:51:33.035Z,15.26
2022-11-09T16:54:22.350Z,15.12
2022-11-09T16:57:11.318Z,15.20
2022-11-09T17:00:00.440Z,15.14
2022-11-09T17:02:50.106Z,15.15
2022-11-09T17:05:39.262Z,15.12
2022-11-09T17:08:27.917Z,15.14
2022-11-09T17:11:17.772Z,15.14
2022-11-09T17:14:06.620Z,15.09
2022-11-09T17:16:58.739Z,15.03
2022-11-09T17:19:48.285Z,15.10
2022-11-09T17:22:41.667Z,15.13
2022-11-09T17:25:33.685Z,15.21
2022-11-09T17:28:22.960Z,15.31
2022-11-09T17:31:16.391Z,15.34
2022-11-09T17:34:05.784Z,15.28
2022-11-09T17:37:04.284Z,15.49
2022-11-09T17:39:54.114Z,15.48
2022-11-09T17:42:43.039Z,15.53
2022-11-09T17:45:31.885Z,15.61
2022-11-09T17:48:20.737Z,15.62
2022-11-09T17:51:10.642Z,15.72
2022-11-09T17:54:00.819Z,15.92
2022-11-09T17:56:50.056Z,16.01
2022-11-09T17:59:38.831Z,15.96
2022-11-09T18:02:28.211Z,16.10
2022-11-09T18:05:17.906Z,16.46
2022-11-09T18:08:09.887Z,16.37
2022-11-09T18:11:03.442Z,16.70
2022-11-09T18:13:52.717Z,16.58
2022-11-09T18:16:41.736Z,17.08
2022-11-09T18:19:30.866Z,17.36
2022-11-09T18:22:20.245Z,17.76
2022-11-09T18:25:09.811Z,17.89
2022-11-09T18:27:59.355Z,18.00
2022-11-09T18:30:48.295Z,18.22
2022-11-09T18:33:37.642Z,18.34
2022-11-09T18:36:27.626Z,18.73
2022-11-09T18:39:18.011Z,18.78
2022-11-09T18:42:06.998Z,18.86
2022-11-09T18:44:56.226Z,19.18
2022-11-09T18:47:45.469Z,19.06
2022-11-09T18:50:34.899Z,19.53
2022-11-09T18:53:25.351Z,19.55
2022-11-09T18:56:23.002Z,19.52
2022-11-09T18:59:16.225Z,19.32
2022-11-09T19:02:05.850Z,19.39
2022-11-09T19:04:55.133Z,19.65
2022-11-09T19:07:44.591Z,19.77
2022-11-09T19:10:33.687Z,20.00
2022-11-09T19:13:22.897Z,19.77
2022-11-09T19:16:16.144Z,19.69
2022-11-09T19:19:04.808Z,19.85
2022-11-09T19:21:55.664Z,19.84
2022-11-09T19:24:45.440Z,19.91
2022-11-09T19:27:34.291Z,20.00
2022-11-09T19:30:26.928Z,20.11
2022-11-09T19:33:17.707Z,19.95
2022-11-09T19:36:29.134Z,20.13
2022-11-09T19:39:19.115Z,20.12
2022-11-09T19:42:07.405Z,20.24
2022-11-09T19:44:56.759Z,20.30
2022-11-09T19:47:46.036Z,20.51
2022-11-09T19:50:34.870Z,20.50
2022-11-09T19:53:23.826Z,20.82
2022-11-09T19:56:13.446Z,20.85
2022-11-09T19:59:03.696Z,21.08
2022-11-09T20:01:52.567Z,21.22
2022-11-09T20:04:41.298Z,21.64
2022-11-09T20:07:31.142Z,21.88
2022-11-09T20:10:20.443Z,21.96
2022-11-09T20:13:09.112Z,22.68
2022-11-09T20:16:07.042Z,23.17
2022-11-09T20:18:56.405Z,23.70
2022-11-09T20:21:46.082Z,22.75
2022-11-09T20:24:34.535Z,23.01
2022-11-09T20:27:25.846Z,23.81
2022-11-09T20:30:17.069Z,23.90
2022-11-09T20:33:06.286Z,23.91
2022-11-09T20:35:56.860Z,24.16
2022-11-09T20:38:45.880Z,24.41
2022-11-09T20:44:24.184Z,24.43
2022-11-09T20:47:13.481Z,23.57
2022-11-09T20:50:02.726Z,23.72
2022-11-09T20:52:51.367Z,23.54
2022-11-09T20:55:41.783Z,23.22
2022-11-09T20:58:30.794Z,23.20
2022-11-09T21:01:21.038Z,23.13
2022-11-09T21:04:09.823Z,22.86
2022-11-09T21:06:59.261Z,22.64
2022-11-09T21:09:48.460Z,22.51
2022-11-09T21:12:37.787Z,22.65
2022-11-09T21:15:27.363Z,22.73
2022-11-09T21:18:16.583Z,22.90
2022-11-09T21:21:17.190Z,22.76
2022-11-09T21:24:25.135Z,22.80
2022-11-09T21:27:33.287Z,23.08
2022-11-09T21:30:22.708Z,22.82
2022-11-09T21:33:12.243Z,23.23
2022-11-09T21:36:07.759Z,23.53
2022-11-09T21:38:57.097Z,23.33
2022-11-09T21:41:46.343Z,23.11
2022-11-09T21:44:36.243Z,23.15
2022-11-09T21:47:26.080Z,23.47
2022-11-09T21:50:14.855Z,23.77
2022-11-09T21:53:03.926Z,24.56
2022-11-09T21:55:53.259Z,23.15
2022-11-09T21:58:42.883Z,23.61
2022-11-09T22:01:31.762Z,24.41
2022-11-09T22:04:21.212Z,24.86
2022-11-09T22:07:10.851Z,24.76
2022-11-09T22:10:09.836Z,24.16
2022-11-09T22:13:17.955Z,23.48
2022-11-09T22:16:09.344Z,23.52
2022-11-09T22:19:16.642Z,23.91
2022-11-09T22:22:05.742Z,24.14
2022-11-09T22:24:54.874Z,24.13
2022-11-09T22:27:44.413Z,23.63
2022-11-09T22:30:33.021Z,23.33
2022-11-09T22:33:26.914Z,23.57
2022-11-09T22:36:17.956Z,23.47
2022-11-09T22:39:06.974Z,23.63
2022-11-09T22:41:56.510Z,23.44
2022-11-09T22:44:45.287Z,23.10
2022-11-09T22:47:34.835Z,22.89
2022-11-09T22:50:24.357Z,23.07
2022-11-09T22:53:13.220Z,22.77
2022-11-09T22:56:04.118Z,22.54
2022-11-09T22:58:54.771Z,22.65
2022-11-09T23:01:44.251Z,22.76
2022-11-09T23:04:33.091Z,22.77
2022-11-09T23:07:22.042Z,22.99
2022-11-09T23:10:11.976Z,22.85
2022-11-09T23:13:03.847Z,23.04
2022-11-09T23:16:00.895Z,22.98
2022-11-09T23:18:55.934Z,23.13
2022-11-09T23:21:45.186Z,23.68
2022-11-09T23:24:51.919Z,23.62
2022-11-09T23:27:40.842Z,23.73
2022-11-09T23:30:30.188Z,23.56
2022-11-09T23:33:19.619Z,23.30
2022-11-09T23:36:10.325Z,22.97
2022-11-09T23:38:59.906Z,22.69
2022-11-09T23:41:49.422Z,22.49
2022-11-09T23:44:38.371Z,22.56
2022-11-09T23:47:26.975Z,22.56
2022-11-09T23:50:16.218Z,22.34
2022-11-09T23:53:05.241Z,22.46
2022-11-09T23:55:55.268Z,22.45
2022-11-09T23:58:45.872Z,22.76
